createdAt,value
2022-08-17T00:00:00.410Z,98407.00
2022-08-17T00:02:27.369Z,98406.40
2022-08-17T00:04:55.610Z,98409.00
2022-08-17T00:07:22.933Z,98407.00
2022-08-17T00:09:49.717Z,98406.80
2022-08-17T00:12:43.626Z,98407.60
2022-08-17T00:15:05.945Z,98409.40
2022-08-17T00:17:37.009Z,98409.20
2022-08-17T00:20:04.656Z,98409.00
2022-08-17T00:22:46.685Z,98405.80
2022-08-17T00:25:19.960Z,98405.20
2022-08-17T00:27:46.913Z,98403.60
2022-08-17T00:30:14.630Z,98398.20
2022-08-17T00:33:11.854Z,98401.20
2022-08-17T00:35:34.835Z,98405.60
2022-08-17T00:38:01.737Z,98402.20
2022-08-17T00:40:40.765Z,98406.00
2022-08-17T00:43:21.840Z,98406.60
2022-08-17T00:45:49.475Z,98403.60
2022-08-17T00:48:28.845Z,98408.80
2022-08-17T00:51:04.752Z,98414.60
2022-08-17T00:53:34.957Z,98410.60
2022-08-17T00:56:06.098Z,98415.80
2022-08-17T00:58:36.072Z,98415.00
2022-08-17T01:01:06.760Z,98419.60
2022-08-17T01:03:37.234Z,98415.80
2022-08-17T01:06:08.048Z,98414.60
2022-08-17T01:08:38.419Z,98411.80
2022-08-17T01:11:07.771Z,98412.40
2022-08-17T01:13:42.605Z,98411.60
2022-08-17T01:16:25.037Z,98407.40
2022-08-17T01:18:57.186Z,98409.80
2022-08-17T01:21:47.650Z,98410.00
2022-08-17T01:24:15.588Z,98412.60
2022-08-17T01:26:44.242Z,98415.00
2022-08-17T01:29:12.667Z,98411.60
2022-08-17T01:31:47.079Z,98410.80
2022-08-17T01:34:17.320Z,98412.80
2022-08-17T01:36:46.874Z,98408.40
2022-08-17T01:39:35.848Z,98402.80
2022-08-17T01:42:36.500Z,98402.60
2022-08-17T01:45:17.521Z,98400.20
2022-08-17T01:47:44.789Z,98399.40
2022-08-17T01:50:18.531Z,98397.80
2022-08-17T01:52:49.279Z,98398.40
2022-08-17T01:55:22.485Z,98399.00
2022-08-17T01:57:52.719Z,98402.40
2022-08-17T02:00:19.337Z,98404.00
2022-08-17T02:02:46.028Z,98399.00
2022-08-17T02:05:14.399Z,98397.00
2022-08-17T02:07:59.879Z,98398.40
2022-08-17T02:13:21.537Z,98398.20
2022-08-17T02:15:48.045Z,98405.00
2022-08-17T02:18:15.859Z,98407.20
2022-08-17T02:20:43.001Z,98403.80
2022-08-17T02:23:12.388Z,98407.80
2022-08-17T02:25:43.445Z,98409.60
2022-08-17T02:28:10.680Z,98405.60
2022-08-17T02:30:59.265Z,98406.00
2022-08-17T02:33:24.924Z,98402.00
2022-08-17T02:36:13.013Z,98403.80
2022-08-17T02:38:40.638Z,98406.20
2022-08-17T02:41:08.392Z,98406.60
2022-08-17T02:43:35.129Z,98403.60
2022-08-17T02:46:01.916Z,98402.40
2022-08-17T02:48:31.015Z,98406.20
2022-08-17T02:50:59.112Z,98402.00
2022-08-17T02:53:25.918Z,98408.40
2022-08-17T02:55:53.214Z,98416.20
2022-08-17T02:58:34.389Z,98415.60
2022-08-17T03:01:05.584Z,98417.00
2022-08-17T03:03:32.499Z,98418.60
2022-08-17T03:05:59.093Z,98422.20
2022-08-17T03:08:25.805Z,98420.40
2022-08-17T03:10:52.766Z,98424.80
2022-08-17T03:13:20.099Z,98421.60
2022-08-17T03:15:48.538Z,98421.40
2022-08-17T03:18:24.557Z,98417.80
2022-08-17T03:20:55.609Z,98417.00
2022-08-17T03:23:24.490Z,98412.20
2022-08-17T03:25:54.187Z,98418.20
2022-08-17T03:28:22.087Z,98414.80
2022-08-17T03:30:51.244Z,98415.20
2022-08-17T03:33:19.557Z,98415.00
2022-08-17T03:35:46.618Z,98414.60
2022-08-17T03:38:15.099Z,98417.40
2022-08-17T03:40:57.193Z,98419.20
2022-08-17T03:43:31.908Z,98420.20
2022-08-17T03:46:33.829Z,98421.40
2022-08-17T03:49:23.924Z,98419.60
2022-08-17T03:52:10.330Z,98423.80
2022-08-17T03:54:55.595Z,98429.80
2022-08-17T03:57:22.378Z,98437.00
2022-08-17T03:59:49.849Z,98433.80
2022-08-17T04:02:22.341Z,98435.80
2022-08-17T04:04:50.882Z,98437.60
2022-08-17T04:07:23.256Z,98440.80
2022-08-17T04:09:50.239Z,98441.40
2022-08-17T04:12:21.770Z,98442.60
2022-08-17T04:14:52.945Z,98446.80
2022-08-17T04:17:28.290Z,98445.80
2022-08-17T04:19:56.489Z,98447.80
2022-08-17T04:22:31.130Z,98449.40
2022-08-17T04:25:18.921Z,98453.80
2022-08-17T04:27:45.516Z,98458.80
2022-08-17T04:30:13.253Z,98459.80
2022-08-17T04:33:07.305Z,98467.20
2022-08-17T04:35:47.638Z,98472.40
2022-08-17T04:38:21.697Z,98463.20
2022-08-17T04:41:07.906Z,98465.60
2022-08-17T04:43:37.473Z,98468.60
2022-08-17T04:46:08.898Z,98472.80
2022-08-17T04:48:40.834Z,98477.20
2022-08-17T04:51:35.758Z,98476.00
2022-08-17T04:54:07.892Z,98480.40
2022-08-17T04:56:36.079Z,98483.80
2022-08-17T05:02:05.369Z,98485.80
2022-08-17T05:04:33.910Z,98482.00
2022-08-17T05:07:18.622Z,98479.80
2022-08-17T05:09:47.645Z,98474.40
2022-08-17T05:12:16.133Z,98474.00
2022-08-17T05:14:42.615Z,98476.40
2022-08-17T05:17:11.370Z,98477.00
2022-08-17T05:19:41.947Z,98474.40
2022-08-17T05:22:08.654Z,98471.80
2022-08-17T05:24:40.807Z,98470.60
2022-08-17T05:27:10.425Z,98477.80
2022-08-17T05:29:50.497Z,98472.40
2022-08-17T05:32:38.550Z,98476.60
2022-08-17T05:35:05.957Z,98474.60
2022-08-17T05:37:43.590Z,98481.20
2022-08-17T05:40:11.299Z,98478.60
2022-08-17T05:42:37.876Z,98476.40
2022-08-17T05:45:05.652Z,98482.60
2022-08-17T05:47:32.313Z,98480.00
2022-08-17T05:50:27.149Z,98485.60
2022-08-17T05:53:26.898Z,98484.20
2022-08-17T05:56:29.203Z,98483.80
2022-08-17T05:59:18.746Z,98482.00
2022-08-17T06:02:03.001Z,98480.00
2022-08-17T06:04:57.038Z,98479.00
2022-08-17T06:07:40.242Z,98477.60
2022-08-17T06:10:25.236Z,98478.40
2022-08-17T06:13:10.737Z,98483.40
2022-08-17T06:15:58.287Z,98487.00
2022-08-17T06:18:40.860Z,98489.40
2022-08-17T06:21:15.500Z,98488.40
2022-08-17T06:24:03.654Z,98488.60
2022-08-17T06:26:42.755Z,98488.80
2022-08-17T06:29:52.812Z,98486.40
2022-08-17T06:32:19.400Z,98483.20
2022-08-17T06:34:47.140Z,98488.00
2022-08-17T06:37:41.112Z,98484.00
2022-08-17T06:40:40.331Z,98488.40
2022-08-17T06:43:49.373Z,98491.60
2022-08-17T06:46:43.008Z,98490.40
2022-08-17T06:49:40.598Z,98491.20
2022-08-17T06:52:45.974Z,98486.60
2022-08-17T06:55:35.822Z,98490.40
2022-08-17T06:58:16.260Z,98481.00
2022-08-17T07:00:47.814Z,98480.20
2022-08-17T07:03:38.138Z,98476.60
2022-08-17T07:06:15.123Z,98479.20
2022-08-17T07:09:04.281Z,98482.20
2022-08-17T07:11:54.306Z,98480.40
2022-08-17T07:14:53.216Z,98482.20
2022-08-17T07:17:46.479Z,98481.20
2022-08-17T07:20:22.442Z,98477.20
2022-08-17T07:23:23.830Z,98476.00
2022-08-17T07:25:50.764Z,98479.00
2022-08-17T07:28:23.215Z,98487.20
2022-08-17T07:30:54.865Z,98489.20
2022-08-17T07:33:29.121Z,98486.80
2022-08-17T07:36:01.280Z,98493.00
2022-08-17T07:38:35.530Z,98496.20
2022-08-17T07:41:07.196Z,98495.60
2022-08-17T07:44:11.379Z,98492.00
2022-08-17T07:47:16.212Z,98497.40
2022-08-17T07:49:48.829Z,98499.20
2022-08-17T07:52:48.379Z,98496.60
2022-08-17T07:55:30.760Z,98498.40
2022-08-17T07:58:00.102Z,98497.20
2022-08-17T08:00:34.020Z,98498.00
2022-08-17T08:03:21.672Z,98494.80
2022-08-17T08:06:03.019Z,98495.20
2022-08-17T08:08:54.847Z,98490.80
2022-08-17T08:11:35.431Z,98492.00
2022-08-17T08:14:38.273Z,98490.60
2022-08-17T08:17:09.191Z,98492.20
2022-08-17T08:19:36.067Z,98492.20
2022-08-17T08:22:30.455Z,98493.80
2022-08-17T08:25:37.260Z,98501.20
2022-08-17T08:28:20.780Z,98498.00
2022-08-17T08:31:00.538Z,98501.80
2022-08-17T08:33:48.465Z,98498.80
2022-08-17T08:37:17.715Z,98495.60
2022-08-17T08:40:11.591Z,98505.60
2022-08-17T08:43:08.364Z,98502.80
2022-08-17T08:46:08.592Z,98505.00
2022-08-17T08:49:18.309Z,98505.00
2022-08-17T08:52:00.162Z,98507.60
2022-08-17T08:54:57.860Z,98509.00
2022-08-17T08:58:31.365Z,98514.00
2022-08-17T09:01:00.866Z,98519.40
2022-08-17T09:04:25.087Z,98515.80
2022-08-17T09:07:39.925Z,98513.00
2022-08-17T09:10:31.936Z,98506.20
2022-08-17T09:13:18.891Z,98509.00
2022-08-17T09:15:51.144Z,98508.60
2022-08-17T09:19:00.418Z,98511.20
2022-08-17T09:21:52.629Z,98507.40
2022-08-17T09:24:40.148Z,98503.00
2022-08-17T09:27:32.258Z,98504.20
2022-08-17T09:30:09.820Z,98512.00
2022-08-17T09:33:01.476Z,98509.40
2022-08-17T09:35:55.924Z,98505.80
2022-08-17T09:38:52.590Z,98510.20
2022-08-17T09:41:38.547Z,98507.60
2022-08-17T09:44:47.499Z,98506.80
2022-08-17T09:48:14.595Z,98502.60
2022-08-17T09:51:23.834Z,98502.40
2022-08-17T09:53:50.764Z,98505.60
2022-08-17T09:56:47.047Z,98502.80
2022-08-17T09:59:38.682Z,98506.20
2022-08-17T10:02:51.161Z,98509.00
2022-08-17T10:05:25.891Z,98508.00
2022-08-17T10:08:17.023Z,98511.00
2022-08-17T10:11:51.436Z,98505.00
2022-08-17T10:15:05.073Z,98505.00
2022-08-17T10:18:10.077Z,98508.00
2022-08-17T10:21:24.128Z,98502.00
2022-08-17T10:24:35.992Z,98502.20
2022-08-17T10:27:13.314Z,98505.00
2022-08-17T10:29:57.078Z,98508.20
2022-08-17T10:32:44.476Z,98503.60
2022-08-17T10:36:00.982Z,98498.80
2022-08-17T10:38:47.881Z,98500.00
2022-08-17T10:41:42.287Z,98507.00
2022-08-17T10:44:48.338Z,98504.40
2022-08-17T10:47:38.248Z,98510.80
2022-08-17T10:51:07.788Z,98509.80
2022-08-17T10:53:40.681Z,98514.20
2022-08-17T10:56:27.846Z,98518.40
2022-08-17T10:58:57.204Z,98519.00
2022-08-17T11:01:32.964Z,98518.00
2022-08-17T11:04:18.075Z,98519.60
2022-08-17T11:07:41.880Z,98523.80
2022-08-17T11:10:20.524Z,98524.20
2022-08-17T11:13:28.377Z,98517.80
2022-08-17T11:16:42.216Z,98516.60
2022-08-17T11:19:33.675Z,98521.60
2022-08-17T11:22:39.253Z,98519.00
2022-08-17T11:25:21.124Z,98519.80
2022-08-17T11:28:28.485Z,98518.60
2022-08-17T11:31:05.407Z,98523.00
2022-08-17T11:33:38.189Z,98523.20
2022-08-17T11:36:52.265Z,98523.40
2022-08-17T11:39:54.727Z,98522.40
2022-08-17T11:42:59.002Z,98519.00
2022-08-17T11:46:04.659Z,98517.00
2022-08-17T11:49:15.372Z,98518.20
2022-08-17T11:52:05.225Z,98511.20
2022-08-17T11:54:38.882Z,98515.20
2022-08-17T11:57:25.984Z,98512.20
2022-08-17T12:00:05.980Z,98509.20
2022-08-17T12:02:38.964Z,98511.20
2022-08-17T12:05:17.039Z,98505.60
2022-08-17T12:07:54.791Z,98505.00
2022-08-17T12:10:31.850Z,98505.60
2022-08-17T12:13:18.096Z,98508.20
2022-08-17T12:15:49.636Z,98503.80
2022-08-17T12:18:52.617Z,98509.00
2022-08-17T12:21:28.922Z,98507.00
2022-08-17T12:24:40.769Z,98506.60
2022-08-17T12:27:10.432Z,98507.40
2022-08-17T12:29:52.324Z,98508.40
2022-08-17T12:32:22.419Z,98510.80
2022-08-17T12:34:51.293Z,98509.80
2022-08-17T12:37:27.446Z,98502.00
2022-08-17T12:40:24.627Z,98496.20
2022-08-17T12:43:06.296Z,98496.00
2022-08-17T12:45:40.089Z,98497.00
2022-08-17T12:48:10.994Z,98494.80
2022-08-17T12:50:44.433Z,98495.60
2022-08-17T12:53:17.331Z,98498.00
2022-08-17T12:55:45.823Z,98491.60
2022-08-17T12:58:19.832Z,98492.20
2022-08-17T13:00:54.338Z,98489.00
2022-08-17T13:03:36.596Z,98488.20
2022-08-17T13:06:25.427Z,98492.60
2022-08-17T13:08:52.097Z,98493.20
2022-08-17T13:11:30.499Z,98489.20
2022-08-17T13:14:10.238Z,98487.40
2022-08-17T13:16:37.217Z,98484.20
2022-08-17T13:19:40.432Z,98482.20
2022-08-17T13:22:12.606Z,98485.00
2022-08-17T13:25:03.555Z,98484.60
2022-08-17T13:27:32.339Z,98492.20
2022-08-17T13:30:12.180Z,98491.00
2022-08-17T13:35:50.165Z,98493.60
2022-08-17T13:38:47.952Z,98495.40
2022-08-17T13:41:38.950Z,98502.80
2022-08-17T13:44:30.222Z,98500.80
2022-08-17T13:46:59.561Z,98500.60
2022-08-17T13:49:41.974Z,98498.60
2022-08-17T13:52:40.259Z,98501.60
2022-08-17T13:55:28.386Z,98498.80
2022-08-17T13:58:03.898Z,98504.20
2022-08-17T14:00:36.333Z,98515.20
2022-08-17T14:03:05.462Z,98520.40
2022-08-17T14:05:38.172Z,98523.60
2022-08-17T14:08:06.443Z,98525.80
2022-08-17T14:10:36.273Z,98527.20
2022-08-17T14:13:03.409Z,98527.00
2022-08-17T14:15:55.984Z,98528.40
2022-08-17T14:18:54.288Z,98519.60
2022-08-17T14:21:08.342Z,98517.20
2022-08-17T14:23:39.910Z,98518.60
2022-08-17T14:26:10.645Z,98523.40
2022-08-17T14:28:38.713Z,98521.60
2022-08-17T14:31:21.193Z,98522.40
2022-08-17T14:33:48.788Z,98527.80
2022-08-17T14:36:15.408Z,98527.40
2022-08-17T14:38:41.946Z,98522.00
2022-08-17T14:41:08.619Z,98517.60
2022-08-17T14:43:35.345Z,98517.60
2022-08-17T14:46:08.424Z,98516.20
2022-08-17T14:48:38.327Z,98512.80
2022-08-17T14:51:05.473Z,98514.80
2022-08-17T14:53:32.189Z,98514.40
2022-08-17T14:55:58.890Z,98509.80
2022-08-17T14:58:42.597Z,98509.00
2022-08-17T15:01:13.010Z,98512.80
2022-08-17T15:03:41.737Z,98512.20
2022-08-17T15:06:15.251Z,98511.20
2022-08-17T15:08:45.690Z,98510.20
2022-08-17T15:11:14.323Z,98508.40
2022-08-17T15:13:52.053Z,98503.40
2022-08-17T15:16:20.567Z,98508.00
2022-08-17T15:19:01.382Z,98510.60
2022-08-17T15:21:27.955Z,98507.40
2022-08-17T15:23:54.783Z,98514.20
2022-08-17T15:26:26.086Z,98507.80
2022-08-17T15:28:57.045Z,98508.00
2022-08-17T15:31:31.953Z,98509.60
2022-08-17T15:33:59.112Z,98509.40
2022-08-17T15:36:25.740Z,98514.60
2022-08-17T15:38:52.390Z,98513.00
2022-08-17T15:41:20.040Z,98516.80
2022-08-17T15:43:52.166Z,98518.40
2022-08-17T15:46:25.950Z,98520.00
2022-08-17T15:49:00.111Z,98527.40
2022-08-17T15:51:31.909Z,98534.20
2022-08-17T15:54:19.202Z,98535.00
2022-08-17T15:56:49.700Z,98529.60
2022-08-17T15:59:22.138Z,98529.20
2022-08-17T16:03:14.192Z,98534.20
2022-08-17T16:04:36.348Z,98531.80
2022-08-17T16:07:14.920Z,98526.20
2022-08-17T16:09:45.220Z,98530.00
2022-08-17T16:12:18.441Z,98523.20
2022-08-17T16:14:47.069Z,98524.40
2022-08-17T16:17:38.838Z,98524.40
2022-08-17T16:20:00.626Z,98526.20
2022-08-17T16:22:44.288Z,98525.40
2022-08-17T16:25:52.103Z,98524.60
2022-08-17T16:28:17.459Z,98525.80
2022-08-17T16:30:44.352Z,98531.60
2022-08-17T16:33:13.147Z,98532.20
2022-08-17T16:35:41.933Z,98530.80
2022-08-17T16:38:09.477Z,98526.40
2022-08-17T16:40:36.445Z,98525.00
2022-08-17T16:43:06.982Z,98525.80
2022-08-17T16:45:39.147Z,98530.00
2022-08-17T16:48:08.248Z,98537.80
2022-08-17T16:50:36.515Z,98538.20
2022-08-17T16:53:25.371Z,98535.20
2022-08-17T16:56:00.831Z,98532.80
2022-08-17T16:58:27.400Z,98527.20
2022-08-17T17:00:59.593Z,98529.00
2022-08-17T17:03:38.651Z,98533.00
2022-08-17T17:06:29.080Z,98532.60
2022-08-17T17:09:02.413Z,98532.20
2022-08-17T17:11:33.651Z,98525.60
2022-08-17T17:14:06.056Z,98528.40
2022-08-17T17:16:51.345Z,98531.00
2022-08-17T17:19:34.972Z,98532.20
2022-08-17T17:22:19.068Z,98541.20
2022-08-17T17:25:16.877Z,98541.60
2022-08-17T17:28:24.997Z,98540.60
2022-08-17T17:31:04.054Z,98546.00
2022-08-17T17:33:40.344Z,98549.00
2022-08-17T17:36:41.490Z,98549.20
2022-08-17T17:39:17.881Z,98554.60
2022-08-17T17:42:16.634Z,98550.20
2022-08-17T17:45:03.077Z,98558.00
2022-08-17T17:47:39.260Z,98559.80
2022-08-17T17:50:08.396Z,98560.40
2022-08-17T17:52:47.551Z,98564.00
2022-08-17T17:55:51.723Z,98567.60
2022-08-17T17:58:56.136Z,98573.00
2022-08-17T18:01:37.550Z,98574.40
2022-08-17T18:04:29.585Z,98571.80
2022-08-17T18:07:17.911Z,98573.60
2022-08-17T18:10:29.740Z,98578.80
2022-08-17T18:13:21.310Z,98586.20
2022-08-17T18:15:54.038Z,98585.20
2022-08-17T18:18:38.626Z,98586.80
2022-08-17T18:21:19.357Z,98589.80
2022-08-17T18:23:51.509Z,98591.00
2022-08-17T18:41:30.585Z,98586.40
2022-08-17T18:44:16.106Z,98584.60
2022-08-17T18:46:42.766Z,98588.20
2022-08-17T18:49:28.414Z,98587.60
2022-08-17T18:52:23.190Z,98593.20
2022-08-17T18:55:03.635Z,98598.00
2022-08-17T18:57:35.403Z,98604.40
2022-08-17T19:00:35.887Z,98606.80
2022-08-17T19:03:26.460Z,98603.00
2022-08-17T19:05:57.367Z,98605.60
2022-08-17T19:08:34.908Z,98604.80
2022-08-17T19:11:30.389Z,98609.00
2022-08-17T19:14:07.844Z,98609.40
2022-08-17T19:16:52.862Z,98622.20
2022-08-17T19:19:30.612Z,98621.40
2022-08-17T19:22:28.529Z,98625.40
2022-08-17T19:25:16.162Z,98630.80
2022-08-17T19:27:58.148Z,98634.00
2022-08-17T19:30:25.878Z,98633.40
2022-08-17T19:32:53.050Z,98631.80
2022-08-17T19:35:25.748Z,98635.40
2022-08-17T19:38:39.469Z,98637.20
2022-08-17T19:41:20.060Z,98644.20
2022-08-17T19:44:01.129Z,98650.20
2022-08-17T19:46:50.397Z,98651.80
2022-08-17T19:49:41.703Z,98654.40
2022-08-17T19:52:41.863Z,98661.00
2022-08-17T19:55:47.565Z,98666.60
2022-08-17T19:58:32.105Z,98661.40
2022-08-17T20:01:00.335Z,98660.40
2022-08-17T20:03:49.478Z,98661.80
2022-08-17T20:06:16.325Z,98666.20
2022-08-17T20:09:18.193Z,98666.20
2022-08-17T20:11:56.137Z,98665.00
2022-08-17T20:14:35.908Z,98663.20
2022-08-17T20:17:03.593Z,98663.60
2022-08-17T20:19:52.068Z,98660.40
2022-08-17T20:22:52.505Z,98659.20
2022-08-17T20:25:45.966Z,98662.20
2022-08-17T20:28:30.412Z,98662.00
2022-08-17T20:30:58.633Z,98657.60
2022-08-17T20:33:37.036Z,98656.40
2022-08-17T20:36:15.697Z,98649.00
2022-08-17T20:38:55.252Z,98647.20
2022-08-17T20:41:26.866Z,98653.40
2022-08-17T20:43:59.194Z,98659.40
2022-08-17T20:46:34.115Z,98654.20
2022-08-17T20:49:18.807Z,98652.60
2022-08-17T20:52:07.837Z,98649.40
2022-08-17T20:54:57.444Z,98646.80
2022-08-17T20:57:53.546Z,98649.60
2022-08-17T21:00:29.260Z,98657.80
2022-08-17T21:03:23.608Z,98652.80
2022-08-17T21:06:18.006Z,98651.80
2022-08-17T21:08:58.715Z,98648.60
2022-08-17T21:12:02.430Z,98651.20
2022-08-17T21:14:32.691Z,98648.00
2022-08-17T21:17:34.534Z,98639.40
2022-08-17T21:20:22.301Z,98641.80
2022-08-17T21:23:41.033Z,98648.00
2022-08-17T21:26:38.857Z,98652.40
2022-08-17T21:29:31.067Z,98648.80
2022-08-17T21:31:59.134Z,98652.00
2022-08-17T21:34:37.804Z,98658.20
2022-08-17T21:37:22.376Z,98653.80
2022-08-17T21:40:13.429Z,98652.20
2022-08-17T21:42:49.066Z,98655.60
2022-08-17T21:45:37.664Z,98663.60
2022-08-17T21:48:17.197Z,98659.00
2022-08-17T21:50:58.419Z,98652.60
2022-08-17T21:53:53.048Z,98649.80
2022-08-17T21:56:36.251Z,98644.20
2022-08-17T21:59:07.793Z,98641.40
2022-08-17T22:01:40.796Z,98638.00
2022-08-17T22:04:11.334Z,98640.00
2022-08-17T22:06:57.308Z,98646.40
2022-08-17T22:09:47.451Z,98646.20
2022-08-17T22:12:26.789Z,98645.80
2022-08-17T22:15:06.112Z,98645.40
2022-08-17T22:17:45.171Z,98650.20
2022-08-17T22:20:19.934Z,98654.80
2022-08-17T22:23:04.784Z,98651.00
2022-08-17T22:25:37.218Z,98644.80
2022-08-17T22:28:09.064Z,98642.00
2022-08-17T22:30:58.037Z,98636.00
2022-08-17T22:33:34.521Z,98637.40
2022-08-17T22:36:29.140Z,98628.40
2022-08-17T22:39:11.078Z,98627.20
2022-08-17T22:41:42.464Z,98630.40
2022-08-17T22:44:44.477Z,98628.80
2022-08-17T22:47:13.994Z,98621.00
2022-08-17T22:49:53.827Z,98618.20
2022-08-17T22:52:58.363Z,98619.80
2022-08-17T22:55:45.905Z,98617.60
2022-08-17T22:58:36.626Z,98615.60
2022-08-17T23:01:25.831Z,98616.40
2022-08-17T23:03:58.375Z,98608.60
2022-08-17T23:06:25.356Z,98602.80
2022-08-17T23:08:54.928Z,98603.80
2022-08-17T23:11:36.619Z,98606.60
2022-08-17T23:14:14.439Z,98607.00
2022-08-17T23:16:44.501Z,98604.60
2022-08-17T23:19:15.945Z,98603.60
2022-08-17T23:21:46.876Z,98605.60
2022-08-17T23:24:23.886Z,98614.40
2022-08-17T23:26:50.527Z,98620.20
2022-08-17T23:29:17.312Z,98617.40
2022-08-17T23:31:43.991Z,98614.80
2022-08-17T23:34:14.933Z,98609.40
2022-08-17T23:36:42.064Z,98610.80
2022-08-17T23:39:08.565Z,98615.00
2022-08-17T23:41:40.041Z,98619.40
2022-08-17T23:44:07.392Z,98623.80
2022-08-17T23:46:34.747Z,98628.60
2022-08-17T23:49:01.761Z,98631.80
2022-08-17T23:51:35.658Z,98642.60
2022-08-17T23:54:13.434Z,98646.80
2022-08-17T23:56:46.824Z,98650.40
2022-08-17T23:59:16.604Z,98649.40
